createdAt,value
2018-10-09T00:00:30.560Z,0.00
2018-10-09T00:01:30.484Z,0.00
2018-10-09T00:03:23.258Z,0.00
2018-10-09T00:04:23.187Z,0.00
2018-10-09T00:06:15.936Z,0.00
2018-10-09T00:07:15.869Z,0.00
2018-10-09T00:09:08.670Z,0.00
2018-10-09T00:10:08.582Z,0.00
2018-10-09T00:12:01.344Z,0.00
2018-10-09T00:13:01.273Z,0.00
2018-10-09T00:14:54.048Z,0.00
2018-10-09T00:15:53.959Z,0.00
2018-10-09T00:17:46.727Z,0.00
2018-10-09T00:18:46.655Z,0.00
2018-10-09T00:20:39.469Z,0.00
2018-10-09T00:21:39.387Z,0.00
2018-10-09T00:23:32.165Z,0.00
2018-10-09T00:24:32.088Z,0.00
2018-10-09T00:26:24.874Z,0.00
2018-10-09T00:27:24.797Z,0.00
2018-10-09T00:29:17.575Z,0.00
2018-10-09T00:32:10.254Z,0.00
2018-10-09T00:33:10.182Z,0.00
2018-10-09T00:35:02.957Z,0.00
2018-10-09T00:36:02.874Z,0.00
2018-10-09T00:37:55.651Z,0.00
2018-10-09T00:38:55.575Z,0.00
2018-10-09T00:40:48.335Z,0.00
2018-10-09T00:41:48.256Z,0.00
2018-10-09T00:43:41.035Z,0.00
2018-10-09T00:44:40.970Z,0.00
2018-10-09T00:46:33.719Z,0.00
2018-10-09T00:47:33.646Z,0.00
2018-10-09T00:49:26.448Z,0.00
2018-10-09T00:50:26.370Z,0.00
2018-10-09T00:52:19.138Z,0.00
2018-10-09T00:53:19.067Z,0.00
2018-10-09T00:55:11.870Z,0.00
2018-10-09T00:56:11.771Z,0.00
2018-10-09T00:58:04.531Z,0.00
2018-10-09T00:59:04.464Z,0.00
2018-10-09T01:00:57.232Z,0.00
2018-10-09T01:01:57.158Z,0.00
2018-10-09T01:03:49.918Z,0.00
2018-10-09T01:04:49.837Z,0.00
2018-10-09T01:06:42.623Z,0.00
2018-10-09T01:07:42.540Z,0.00
2018-10-09T01:09:35.308Z,0.00
2018-10-09T01:10:35.237Z,0.00
2018-10-09T01:12:28.005Z,0.00
2018-10-09T01:13:27.928Z,0.00
2018-10-09T01:15:20.701Z,0.00
2018-10-09T01:16:20.617Z,0.00
2018-10-09T01:18:13.388Z,0.00
2018-10-09T01:19:13.319Z,0.00
2018-10-09T01:21:06.106Z,0.00
2018-10-09T01:22:06.025Z,0.00
2018-10-09T01:23:58.800Z,0.00
2018-10-09T01:24:58.733Z,0.00
2018-10-09T01:26:51.486Z,0.00
2018-10-09T01:27:51.412Z,0.00
2018-10-09T01:29:44.189Z,0.00
2018-10-09T01:30:44.129Z,0.00
2018-10-09T01:32:36.852Z,0.00
2018-10-09T01:33:36.780Z,0.00
2018-10-09T01:35:29.552Z,0.00
2018-10-09T01:36:29.459Z,0.00
2018-10-09T01:38:22.222Z,0.00
2018-10-09T01:39:22.153Z,0.00
2018-10-09T01:41:14.934Z,0.00
2018-10-09T01:42:14.861Z,0.00
2018-10-09T01:44:07.632Z,0.00
2018-10-09T01:45:07.542Z,0.00
2018-10-09T01:47:00.329Z,0.00
2018-10-09T01:48:00.249Z,0.00
2018-10-09T01:49:53.020Z,0.00
2018-10-09T01:50:52.941Z,0.00
2018-10-09T01:52:45.707Z,0.00
2018-10-09T01:53:45.636Z,0.00
2018-10-09T01:55:38.448Z,0.00
2018-10-09T01:56:38.328Z,0.00
2018-10-09T01:58:31.103Z,0.00
2018-10-09T01:59:31.048Z,0.00
2018-10-09T02:01:23.807Z,0.00
2018-10-09T02:02:23.743Z,0.00
2018-10-09T02:04:16.516Z,0.00
2018-10-09T02:05:16.437Z,0.00
2018-10-09T02:07:09.185Z,0.00
2018-10-09T02:08:09.123Z,0.00
2018-10-09T02:10:01.883Z,0.00
2018-10-09T02:11:01.799Z,0.00
2018-10-09T02:12:54.559Z,0.00
2018-10-09T02:13:54.489Z,0.00
2018-10-09T02:15:47.295Z,0.00
2018-10-09T02:16:47.195Z,0.00
2018-10-09T02:18:39.964Z,0.00
2018-10-09T02:19:39.900Z,0.00
2018-10-09T02:21:32.900Z,0.00
2018-10-09T02:22:32.739Z,0.00
2018-10-09T02:24:25.649Z,0.00
2018-10-09T02:25:25.588Z,0.00
2018-10-09T02:27:18.518Z,0.00
2018-10-09T02:28:18.365Z,0.00
2018-10-09T02:30:11.356Z,0.00
2018-10-09T02:31:11.254Z,0.00
2018-10-09T02:33:04.187Z,0.00
2018-10-09T02:34:04.065Z,0.00
2018-10-09T02:35:56.914Z,0.00
2018-10-09T02:36:56.798Z,0.00
2018-10-09T02:38:49.592Z,0.00
2018-10-09T02:39:49.524Z,0.00
2018-10-09T02:41:42.413Z,0.00
2018-10-09T02:42:42.289Z,0.00
2018-10-09T02:44:35.105Z,0.00
2018-10-09T02:45:35.036Z,0.00
2018-10-09T02:47:27.828Z,0.00
2018-10-09T02:48:27.747Z,0.00
2018-10-09T02:50:20.676Z,0.00
2018-10-09T02:51:20.609Z,0.00
2018-10-09T02:53:13.476Z,0.00
2018-10-09T02:54:13.389Z,0.00
2018-10-09T02:56:06.388Z,0.00
2018-10-09T02:57:06.215Z,0.00
2018-10-09T02:58:59.009Z,0.00
2018-10-09T02:59:58.953Z,0.00
2018-10-09T03:01:51.828Z,0.00
2018-10-09T03:02:51.769Z,0.00
2018-10-09T03:04:44.588Z,0.00
2018-10-09T03:05:44.487Z,0.00
2018-10-09T03:07:37.375Z,0.00
2018-10-09T03:08:37.405Z,0.00
2018-10-09T03:10:30.137Z,0.00
2018-10-09T03:11:29.962Z,0.00
2018-10-09T03:13:22.711Z,0.00
2018-10-09T03:14:22.640Z,0.00
2018-10-09T03:16:15.422Z,0.00
2018-10-09T03:17:15.338Z,0.00
2018-10-09T03:19:08.106Z,0.00
2018-10-09T03:20:08.031Z,0.00
2018-10-09T03:22:00.816Z,0.00
2018-10-09T03:23:00.720Z,0.00
2018-10-09T03:24:53.518Z,0.00
2018-10-09T03:25:53.420Z,0.00
2018-10-09T03:27:46.185Z,0.00
2018-10-09T03:28:46.113Z,0.00
2018-10-09T03:30:38.901Z,0.00
2018-10-09T03:31:38.810Z,0.00
2018-10-09T03:33:31.619Z,0.00
2018-10-09T03:34:31.533Z,0.00
2018-10-09T03:36:24.325Z,0.00
2018-10-09T03:37:24.232Z,0.00
2018-10-09T03:39:16.995Z,0.00
2018-10-09T03:40:16.924Z,0.00
2018-10-09T03:42:09.720Z,0.00
2018-10-09T03:43:09.628Z,0.00
2018-10-09T03:45:02.451Z,0.00
2018-10-09T03:46:02.322Z,0.00
2018-10-09T03:47:55.104Z,0.00
2018-10-09T03:48:55.020Z,0.00
2018-10-09T03:50:47.812Z,0.00
2018-10-09T03:51:47.750Z,0.00
2018-10-09T03:53:40.523Z,0.00
2018-10-09T03:54:40.430Z,0.00
2018-10-09T03:56:33.213Z,0.00
2018-10-09T03:57:33.140Z,0.00
2018-10-09T03:59:25.916Z,0.00
2018-10-09T04:00:25.843Z,0.00
2018-10-09T04:02:18.607Z,0.00
2018-10-09T04:03:18.534Z,0.00
2018-10-09T04:05:11.282Z,0.00
2018-10-09T04:06:11.215Z,0.00
2018-10-09T04:08:03.983Z,0.00
2018-10-09T04:09:03.935Z,0.00
2018-10-09T04:10:56.657Z,0.00
2018-10-09T04:11:56.589Z,0.00
2018-10-09T04:13:49.359Z,0.00
2018-10-09T04:14:49.280Z,0.00
2018-10-09T04:16:42.051Z,0.00
2018-10-09T04:17:41.967Z,0.00
2018-10-09T04:19:34.823Z,0.00
2018-10-09T04:20:34.660Z,0.00
2018-10-09T04:22:27.431Z,0.00
2018-10-09T04:23:27.352Z,0.00
2018-10-09T04:25:20.119Z,0.00
2018-10-09T04:26:20.041Z,0.00
2018-10-09T04:28:12.826Z,0.00
2018-10-09T04:29:12.742Z,0.00
2018-10-09T04:31:05.519Z,0.00
2018-10-09T04:32:05.426Z,0.00
2018-10-09T04:33:58.188Z,0.00
2018-10-09T04:34:58.105Z,0.00
2018-10-09T04:36:50.882Z,0.00
2018-10-09T04:37:50.803Z,0.00
2018-10-09T04:39:43.591Z,0.00
2018-10-09T04:40:43.498Z,0.00
2018-10-09T04:42:36.287Z,0.00
2018-10-09T04:43:36.199Z,0.00
2018-10-09T04:45:29.025Z,0.00
2018-10-09T04:46:28.885Z,0.00
2018-10-09T04:48:21.661Z,0.00
2018-10-09T04:49:21.574Z,0.00
2018-10-09T04:51:14.348Z,4.00
2018-10-09T04:52:14.271Z,0.00
2018-10-09T04:54:07.020Z,4.00
2018-10-09T04:55:06.952Z,4.00
2018-10-09T04:56:59.726Z,4.00
2018-10-09T04:57:59.646Z,4.00
2018-10-09T04:59:52.452Z,8.00
2018-10-09T05:00:52.452Z,8.00
2018-10-09T05:02:45.142Z,8.00
2018-10-09T05:03:45.067Z,8.00
2018-10-09T05:05:37.821Z,16.00
2018-10-09T05:06:37.751Z,16.00
2018-10-09T05:08:30.522Z,20.00
2018-10-09T05:09:30.441Z,28.00
2018-10-09T05:11:23.219Z,32.00
2018-10-09T05:12:23.126Z,36.00
2018-10-09T05:14:15.874Z,48.00
2018-10-09T05:15:15.812Z,52.00
2018-10-09T05:17:08.592Z,64.00
2018-10-09T05:18:08.511Z,72.00
2018-10-09T05:20:01.255Z,92.00
2018-10-09T05:21:01.195Z,100.00
2018-10-09T05:22:53.965Z,128.00
2018-10-09T05:23:53.880Z,148.00
2018-10-09T05:25:46.640Z,180.00
2018-10-09T05:26:46.578Z,200.00
2018-10-09T05:28:39.341Z,232.00
2018-10-09T05:29:39.273Z,260.00
2018-10-09T05:31:32.094Z,292.00
2018-10-09T05:32:31.952Z,312.00
2018-10-09T05:34:24.712Z,356.00
2018-10-09T05:35:24.654Z,376.00
2018-10-09T05:37:17.436Z,428.00
2018-10-09T05:38:17.381Z,456.00
2018-10-09T05:40:10.122Z,508.00
2018-10-09T05:41:10.048Z,536.00
2018-10-09T05:43:02.859Z,588.00
2018-10-09T05:44:02.753Z,620.00
2018-10-09T05:45:55.506Z,688.00
2018-10-09T05:46:55.430Z,728.00
2018-10-09T05:48:48.192Z,736.00
2018-10-09T05:49:48.115Z,744.00
2018-10-09T05:51:40.873Z,796.00
2018-10-09T05:52:40.862Z,824.00
2018-10-09T05:54:33.561Z,884.00
2018-10-09T05:55:33.485Z,916.00
2018-10-09T05:57:26.246Z,988.00
2018-10-09T05:58:26.175Z,1028.00
2018-10-09T06:00:18.926Z,1108.00
2018-10-09T06:01:18.859Z,1160.00
2018-10-09T06:03:11.645Z,1256.00
2018-10-09T06:04:11.546Z,1308.00
2018-10-09T06:06:04.384Z,1404.00
2018-10-09T06:07:04.271Z,1464.00
2018-10-09T06:08:57.111Z,1592.00
2018-10-09T06:09:57.050Z,1664.00
2018-10-09T06:11:49.963Z,1732.00
2018-10-09T06:12:49.758Z,1736.00
2018-10-09T06:14:42.559Z,1796.00
2018-10-09T06:15:42.658Z,1808.00
2018-10-09T06:17:35.381Z,1824.00
2018-10-09T06:18:35.204Z,1868.00
2018-10-09T06:20:28.009Z,1916.00
2018-10-09T06:21:27.890Z,1964.00
2018-10-09T06:23:20.656Z,2184.00
2018-10-09T06:24:20.583Z,2324.00
2018-10-09T06:26:13.352Z,2648.00
2018-10-09T06:27:13.273Z,2724.00
2018-10-09T06:29:06.054Z,2832.00
2018-10-09T06:30:05.971Z,2972.00
2018-10-09T06:31:58.752Z,3488.00
2018-10-09T06:32:58.666Z,3692.00
2018-10-09T06:34:51.425Z,4208.00
2018-10-09T06:35:51.353Z,4440.00
2018-10-09T06:37:44.128Z,5048.00
2018-10-09T06:38:44.052Z,4876.00
2018-10-09T06:40:36.862Z,4176.00
2018-10-09T06:41:36.743Z,3872.00
2018-10-09T06:43:29.525Z,3840.00
2018-10-09T06:44:29.432Z,4036.00
2018-10-09T06:46:22.193Z,4932.00
2018-10-09T06:47:22.123Z,5460.00
2018-10-09T06:49:14.892Z,5212.00
2018-10-09T06:50:14.832Z,5884.00
2018-10-09T06:52:07.586Z,5976.00
2018-10-09T06:53:07.509Z,5988.00
2018-10-09T06:55:00.282Z,4896.00
2018-10-09T06:56:00.222Z,3788.00
2018-10-09T06:57:52.987Z,3896.00
2018-10-09T06:58:52.904Z,4452.00
2018-10-09T07:00:45.680Z,3976.00
2018-10-09T07:01:45.628Z,3604.00
2018-10-09T07:03:38.405Z,3644.00
2018-10-09T07:04:38.310Z,3712.00
2018-10-09T07:06:31.079Z,3756.00
2018-10-09T07:07:31.007Z,3812.00
2018-10-09T07:09:23.830Z,3924.00
2018-10-09T07:10:23.708Z,3956.00
2018-10-09T07:12:16.505Z,3996.00
2018-10-09T07:13:16.424Z,4032.00
2018-10-09T07:15:09.181Z,4088.00
2018-10-09T07:16:09.116Z,4168.00
2018-10-09T07:18:01.926Z,4768.00
2018-10-09T07:19:01.820Z,4676.00
2018-10-09T07:20:54.601Z,4640.00
2018-10-09T07:21:54.536Z,4640.00
2018-10-09T07:23:47.339Z,4372.00
2018-10-09T07:24:47.245Z,4332.00
2018-10-09T07:26:40.010Z,4312.00
2018-10-09T07:27:39.943Z,4396.00
2018-10-09T07:29:32.718Z,4704.00
2018-10-09T07:30:32.635Z,4696.00
2018-10-09T07:32:25.414Z,4720.00
2018-10-09T07:33:25.347Z,4792.00
2018-10-09T07:35:18.117Z,4952.00
2018-10-09T07:36:18.045Z,5072.00
2018-10-09T07:38:10.827Z,5516.00
2018-10-09T07:39:10.753Z,6264.00
2018-10-09T07:41:03.510Z,7948.00
2018-10-09T07:42:03.452Z,8628.00
2018-10-09T07:43:56.285Z,7716.00
2018-10-09T07:44:56.153Z,7024.00
2018-10-09T07:46:48.925Z,5904.00
2018-10-09T07:47:48.843Z,5380.00
2018-10-09T07:49:41.645Z,5092.00
2018-10-09T07:50:41.570Z,4940.00
2018-10-09T07:52:34.316Z,5176.00
2018-10-09T07:53:34.250Z,5592.00
2018-10-09T07:55:27.047Z,6932.00
2018-10-09T07:56:26.959Z,6984.00
2018-10-09T07:58:19.783Z,6904.00
2018-10-09T07:59:19.689Z,6260.00
2018-10-09T08:01:12.457Z,5216.00
2018-10-09T08:02:12.384Z,4932.00
2018-10-09T08:04:05.154Z,5116.00
2018-10-09T08:05:05.115Z,5448.00
2018-10-09T08:06:57.852Z,5248.00
2018-10-09T08:07:57.781Z,5288.00
2018-10-09T08:09:50.552Z,5720.00
2018-10-09T08:10:50.583Z,5880.00
2018-10-09T08:12:43.245Z,6916.00
2018-10-09T08:13:43.178Z,6464.00
2018-10-09T08:15:35.965Z,6712.00
2018-10-09T08:16:35.887Z,7092.00
2018-10-09T08:18:28.740Z,8692.00
2018-10-09T08:19:28.660Z,9608.00
2018-10-09T08:21:21.396Z,10316.00
2018-10-09T08:22:21.404Z,10568.00
2018-10-09T08:24:14.095Z,11920.00
2018-10-09T08:25:14.020Z,13104.00
2018-10-09T08:27:06.805Z,13788.00
2018-10-09T08:28:06.840Z,13992.00
2018-10-09T08:29:59.558Z,12340.00
2018-10-09T08:30:59.452Z,12760.00
2018-10-09T08:32:52.218Z,12512.00
2018-10-09T08:33:52.153Z,12896.00
2018-10-09T08:35:44.959Z,12696.00
2018-10-09T08:36:44.863Z,12660.00
2018-10-09T08:38:37.654Z,12180.00
2018-10-09T08:39:37.583Z,11272.00
2018-10-09T08:41:30.350Z,9924.00
2018-10-09T08:42:30.320Z,9540.00
2018-10-09T08:44:23.070Z,8588.00
2018-10-09T08:45:23.007Z,8292.00
2018-10-09T08:47:15.758Z,7336.00
2018-10-09T08:48:15.720Z,7116.00
2018-10-09T08:50:08.525Z,6396.00
2018-10-09T08:51:08.434Z,6360.00
2018-10-09T08:53:01.260Z,5824.00
2018-10-09T08:54:01.152Z,5592.00
2018-10-09T08:55:54.026Z,5348.00
2018-10-09T08:56:53.910Z,5844.00
2018-10-09T08:58:46.739Z,6328.00
2018-10-09T08:59:46.652Z,5968.00
2018-10-09T09:01:39.423Z,5348.00
2018-10-09T09:02:39.368Z,5204.00
2018-10-09T09:04:32.145Z,4852.00
2018-10-09T09:05:32.072Z,4808.00
2018-10-09T09:07:24.888Z,4616.00
2018-10-09T09:08:24.791Z,4680.00
2018-10-09T09:10:17.568Z,4236.00
2018-10-09T09:11:17.499Z,4236.00
2018-10-09T09:13:10.269Z,4544.00
2018-10-09T09:14:10.250Z,4724.00
2018-10-09T09:16:03.012Z,6924.00
2018-10-09T09:17:02.963Z,8548.00
2018-10-09T09:18:55.777Z,9748.00
2018-10-09T09:19:55.702Z,10664.00
2018-10-09T09:21:48.467Z,13824.00
2018-10-09T09:22:48.399Z,14720.00
2018-10-09T09:24:41.238Z,10280.00
2018-10-09T09:25:41.112Z,8504.00
2018-10-09T09:27:33.914Z,6248.00
2018-10-09T09:28:33.815Z,7588.00
2018-10-09T09:30:26.597Z,8048.00
2018-10-09T09:31:26.530Z,8452.00
2018-10-09T09:33:19.367Z,14148.00
2018-10-09T09:34:19.240Z,16032.00
2018-10-09T09:36:12.019Z,16064.00
2018-10-09T09:37:11.951Z,15936.00
2018-10-09T09:39:04.746Z,15456.00
2018-10-09T09:40:04.662Z,16288.00
2018-10-09T09:41:57.442Z,14180.00
2018-10-09T09:42:57.406Z,12412.00
2018-10-09T09:44:50.164Z,10792.00
2018-10-09T09:45:50.163Z,11320.00
2018-10-09T09:47:42.867Z,10760.00
2018-10-09T09:48:42.800Z,11232.00
2018-10-09T09:50:35.614Z,11288.00
2018-10-09T09:51:35.550Z,12016.00
2018-10-09T09:53:28.346Z,11268.00
2018-10-09T09:54:28.264Z,9952.00
2018-10-09T09:56:21.053Z,10172.00
2018-10-09T09:57:20.996Z,8708.00
2018-10-09T09:59:13.805Z,10740.00
2018-10-09T10:00:13.695Z,11564.00
2018-10-09T10:02:06.460Z,13256.00
2018-10-09T10:03:06.406Z,10828.00
2018-10-09T10:04:59.180Z,9480.00
2018-10-09T10:05:59.110Z,9788.00
2018-10-09T10:07:51.911Z,10412.00
2018-10-09T10:08:51.839Z,9328.00
2018-10-09T10:10:44.639Z,10828.00
2018-10-09T10:11:44.562Z,9388.00
2018-10-09T10:13:37.356Z,7336.00
2018-10-09T10:14:37.294Z,6732.00
2018-10-09T10:16:30.070Z,9184.00
2018-10-09T10:17:30.003Z,9252.00
2018-10-09T10:19:22.790Z,8056.00
2018-10-09T10:20:22.718Z,8288.00
2018-10-09T10:22:15.484Z,8296.00
2018-10-09T10:23:15.422Z,8524.00
2018-10-09T10:25:08.198Z,8996.00
2018-10-09T10:26:08.124Z,7636.00
2018-10-09T10:28:00.896Z,8184.00
2018-10-09T10:29:00.903Z,7708.00
2018-10-09T10:30:53.618Z,6644.00
2018-10-09T10:31:53.551Z,5500.00
2018-10-09T10:33:46.335Z,5568.00
2018-10-09T10:34:46.272Z,5600.00
2018-10-09T10:36:39.063Z,5656.00
2018-10-09T10:37:38.982Z,5612.00
2018-10-09T10:39:31.766Z,6404.00
2018-10-09T10:40:31.693Z,7156.00
2018-10-09T10:42:24.482Z,8612.00
2018-10-09T10:43:24.419Z,8208.00
2018-10-09T10:45:17.252Z,8208.00
2018-10-09T10:46:17.178Z,8120.00
2018-10-09T10:48:09.966Z,7864.00
2018-10-09T10:49:09.963Z,6448.00
2018-10-09T10:51:02.676Z,7008.00
2018-10-09T10:52:02.610Z,7100.00
2018-10-09T10:53:55.385Z,6792.00
2018-10-09T10:54:55.377Z,6444.00
2018-10-09T10:56:48.178Z,5140.00
2018-10-09T10:57:48.068Z,5004.00
2018-10-09T10:59:40.856Z,4876.00
2018-10-09T11:00:40.788Z,4872.00
2018-10-09T11:02:33.573Z,4936.00
2018-10-09T11:03:33.498Z,4788.00
2018-10-09T11:05:26.280Z,4640.00
2018-10-09T11:06:26.218Z,4572.00
2018-10-09T11:08:18.994Z,4452.00
2018-10-09T11:09:18.926Z,4360.00
2018-10-09T11:11:11.730Z,4252.00
2018-10-09T11:12:11.665Z,4220.00
2018-10-09T11:14:04.448Z,4176.00
2018-10-09T11:15:04.385Z,4168.00
2018-10-09T11:16:57.182Z,4172.00
2018-10-09T11:17:57.093Z,4176.00
2018-10-09T11:19:49.894Z,4240.00
2018-10-09T11:20:49.812Z,4288.00
2018-10-09T11:22:42.596Z,4352.00
2018-10-09T11:23:42.532Z,4408.00
2018-10-09T11:25:35.326Z,4536.00
2018-10-09T11:26:35.258Z,4532.00
2018-10-09T11:28:28.023Z,4600.00
2018-10-09T11:29:27.972Z,4648.00
2018-10-09T11:31:20.739Z,4752.00
2018-10-09T11:32:20.720Z,4760.00
2018-10-09T11:34:13.467Z,4768.00
2018-10-09T11:35:13.408Z,4756.00
2018-10-09T11:37:06.200Z,4744.00
2018-10-09T11:38:06.110Z,4740.00
2018-10-09T11:39:58.929Z,4756.00
2018-10-09T11:40:58.837Z,4760.00
2018-10-09T11:42:51.713Z,4760.00
2018-10-09T11:43:51.549Z,4760.00
2018-10-09T11:45:44.331Z,4784.00
2018-10-09T11:46:44.262Z,4796.00
2018-10-09T11:48:37.032Z,4752.00
2018-10-09T11:49:36.975Z,4712.00
2018-10-09T11:51:29.755Z,4648.00
2018-10-09T11:52:29.681Z,4568.00
2018-10-09T11:54:22.460Z,4480.00
2018-10-09T11:55:22.385Z,4464.00
2018-10-09T11:57:15.172Z,4424.00
2018-10-09T11:58:15.174Z,4252.00
2018-10-09T12:00:07.891Z,4072.00
2018-10-09T12:01:07.819Z,4036.00
2018-10-09T12:03:00.623Z,3964.00
2018-10-09T12:04:00.564Z,3880.00
2018-10-09T12:05:53.375Z,3772.00
2018-10-09T12:06:53.262Z,3776.00
2018-10-09T12:08:46.038Z,3800.00
2018-10-09T12:09:45.980Z,3820.00
2018-10-09T12:11:38.791Z,3980.00
2018-10-09T12:12:38.711Z,3976.00
2018-10-09T12:14:31.506Z,3852.00
2018-10-09T12:15:31.423Z,3836.00
2018-10-09T12:17:24.209Z,3884.00
2018-10-09T12:18:24.135Z,3860.00
2018-10-09T12:20:16.903Z,3628.00
2018-10-09T12:21:16.890Z,3576.00
2018-10-09T12:23:09.624Z,3608.00
2018-10-09T12:24:09.551Z,3596.00
2018-10-09T12:26:02.338Z,3564.00
2018-10-09T12:27:02.322Z,3536.00
2018-10-09T12:28:55.033Z,3564.00
2018-10-09T12:29:54.971Z,3688.00
2018-10-09T12:31:47.787Z,3764.00
2018-10-09T12:32:47.687Z,3832.00
2018-10-09T12:34:40.488Z,3736.00
2018-10-09T12:35:40.389Z,3708.00
2018-10-09T12:37:33.162Z,3604.00
2018-10-09T12:38:33.143Z,3508.00
2018-10-09T12:40:25.869Z,3356.00
2018-10-09T12:41:25.803Z,3360.00
2018-10-09T12:43:18.591Z,3416.00
2018-10-09T12:44:18.583Z,3428.00
2018-10-09T12:46:11.321Z,3532.00
2018-10-09T12:47:11.246Z,3672.00
2018-10-09T12:49:03.208Z,3892.00
2018-10-09T12:50:03.145Z,3948.00
2018-10-09T12:51:55.942Z,3924.00
2018-10-09T12:52:55.882Z,3808.00
2018-10-09T12:54:48.623Z,3492.00
2018-10-09T12:55:48.563Z,3540.00
2018-10-09T12:57:41.360Z,3380.00
2018-10-09T12:58:41.374Z,3360.00
2018-10-09T13:00:34.055Z,3348.00
2018-10-09T13:01:33.994Z,3300.00
2018-10-09T13:03:26.776Z,3220.00
2018-10-09T13:04:26.696Z,3192.00
2018-10-09T13:06:19.492Z,3140.00
2018-10-09T13:07:19.402Z,3120.00
2018-10-09T13:09:12.186Z,3072.00
2018-10-09T13:10:12.125Z,3052.00
2018-10-09T13:12:04.907Z,3024.00
2018-10-09T13:13:04.825Z,3020.00
2018-10-09T13:14:57.652Z,3024.00
2018-10-09T13:15:57.582Z,3024.00
2018-10-09T13:17:50.368Z,3124.00
2018-10-09T13:18:50.295Z,3220.00
2018-10-09T13:20:43.066Z,3492.00
2018-10-09T13:21:43.206Z,3500.00
2018-10-09T13:23:35.774Z,3708.00
2018-10-09T13:24:35.710Z,3692.00
2018-10-09T13:26:28.492Z,3500.00
2018-10-09T13:27:28.418Z,3456.00
2018-10-09T13:29:21.191Z,3360.00
2018-10-09T13:30:21.131Z,3292.00
2018-10-09T13:32:13.911Z,3324.00
2018-10-09T13:33:13.844Z,3380.00
2018-10-09T13:35:06.611Z,3344.00
2018-10-09T13:36:06.553Z,3300.00
2018-10-09T13:37:59.387Z,3204.00
2018-10-09T13:38:59.256Z,3124.00
2018-10-09T13:40:52.068Z,3036.00
2018-10-09T13:41:51.960Z,3012.00
2018-10-09T13:43:44.739Z,2944.00
2018-10-09T13:44:44.672Z,2920.00
2018-10-09T13:46:37.450Z,2972.00
2018-10-09T13:47:37.548Z,3012.00
2018-10-09T13:49:30.159Z,3052.00
2018-10-09T13:50:30.185Z,3088.00
2018-10-09T13:52:22.975Z,2948.00
2018-10-09T13:53:22.817Z,2924.00
2018-10-09T13:55:15.645Z,2800.00
2018-10-09T13:56:15.516Z,2748.00
2018-10-09T13:58:08.326Z,2676.00
2018-10-09T13:59:08.233Z,2632.00
2018-10-09T14:01:01.005Z,2576.00
2018-10-09T14:02:00.940Z,2544.00
2018-10-09T14:03:53.737Z,2476.00
2018-10-09T14:04:53.669Z,2440.00
2018-10-09T14:06:46.447Z,2376.00
2018-10-09T14:07:46.372Z,2340.00
2018-10-09T14:09:39.151Z,2264.00
2018-10-09T14:10:39.087Z,2220.00
2018-10-09T14:12:31.880Z,2144.00
2018-10-09T14:13:31.803Z,2096.00
2018-10-09T14:15:24.590Z,2008.00
2018-10-09T14:16:24.591Z,1964.00
2018-10-09T14:18:17.301Z,1884.00
2018-10-09T14:19:17.236Z,1844.00
2018-10-09T14:21:10.005Z,1776.00
2018-10-09T14:22:09.994Z,1740.00
2018-10-09T14:24:02.724Z,1704.00
2018-10-09T14:25:02.655Z,1688.00
2018-10-09T14:26:55.431Z,1696.00
2018-10-09T14:27:55.358Z,1744.00
2018-10-09T14:29:48.141Z,1760.00
2018-10-09T14:30:48.068Z,1752.00
2018-10-09T14:32:40.877Z,1808.00
2018-10-09T14:33:40.800Z,1856.00
2018-10-09T14:35:33.580Z,1768.00
2018-10-09T14:36:33.506Z,1724.00
2018-10-09T14:38:26.340Z,1784.00
2018-10-09T14:39:26.260Z,1820.00
2018-10-09T14:41:19.033Z,1892.00
2018-10-09T14:42:18.965Z,1936.00
2018-10-09T14:44:11.830Z,2056.00
2018-10-09T14:45:11.696Z,2080.00
2018-10-09T14:47:04.501Z,2064.00
2018-10-09T14:48:04.418Z,2032.00
2018-10-09T14:49:57.190Z,1776.00
2018-10-09T14:50:57.127Z,1700.00
2018-10-09T14:52:49.934Z,1552.00
2018-10-09T14:53:49.848Z,1484.00
2018-10-09T14:55:42.617Z,1356.00
2018-10-09T14:56:42.557Z,1328.00
2018-10-09T14:58:35.326Z,1340.00
2018-10-09T14:59:35.252Z,1416.00
2018-10-09T15:01:28.023Z,1520.00
2018-10-09T15:02:27.959Z,1500.00
2018-10-09T15:04:20.742Z,1548.00
2018-10-09T15:05:20.682Z,1580.00
2018-10-09T15:07:13.443Z,1612.00
2018-10-09T15:08:13.379Z,1524.00
2018-10-09T15:10:06.158Z,1664.00
2018-10-09T15:11:06.084Z,1688.00
2018-10-09T15:12:58.883Z,1664.00
2018-10-09T15:13:58.817Z,1644.00
2018-10-09T15:15:51.596Z,1608.00
2018-10-09T15:16:51.620Z,1572.00
2018-10-09T15:18:44.314Z,1488.00
2018-10-09T15:19:44.237Z,1460.00
2018-10-09T15:21:37.001Z,1396.00
2018-10-09T15:22:36.941Z,1364.00
2018-10-09T15:24:29.748Z,1324.00
2018-10-09T15:25:29.676Z,1288.00
2018-10-09T15:27:22.454Z,1236.00
2018-10-09T15:28:22.379Z,1212.00
2018-10-09T15:30:15.158Z,1144.00
2018-10-09T15:31:15.106Z,1072.00
2018-10-09T15:33:07.899Z,1008.00
2018-10-09T15:34:07.817Z,972.00
2018-10-09T15:36:00.929Z,908.00
2018-10-09T15:37:00.874Z,876.00
2018-10-09T15:38:53.663Z,836.00
2018-10-09T15:39:53.583Z,816.00
2018-10-09T15:41:46.373Z,776.00
2018-10-09T15:42:46.320Z,764.00
2018-10-09T15:44:39.090Z,776.00
2018-10-09T15:45:39.026Z,776.00
2018-10-09T15:47:31.810Z,752.00
2018-10-09T15:48:31.732Z,732.00
2018-10-09T15:50:24.514Z,696.00
2018-10-09T15:51:24.438Z,676.00
2018-10-09T15:53:17.276Z,636.00
2018-10-09T15:54:17.198Z,620.00
2018-10-09T15:56:09.979Z,584.00
2018-10-09T15:57:09.908Z,564.00
2018-10-09T15:59:02.695Z,520.00
2018-10-09T16:00:02.615Z,496.00
2018-10-09T16:01:55.386Z,448.00
2018-10-09T16:02:55.338Z,420.00
2018-10-09T16:04:48.110Z,364.00
2018-10-09T16:05:48.025Z,340.00
2018-10-09T16:07:40.831Z,296.00
2018-10-09T16:08:40.730Z,276.00
2018-10-09T16:10:33.502Z,244.00
2018-10-09T16:11:33.437Z,232.00
2018-10-09T16:13:26.229Z,200.00
2018-10-09T16:14:26.146Z,184.00
2018-10-09T16:16:18.950Z,160.00
2018-10-09T16:17:18.885Z,148.00
2018-10-09T16:19:11.651Z,124.00
2018-10-09T16:20:11.570Z,112.00
2018-10-09T16:22:04.375Z,92.00
2018-10-09T16:23:04.280Z,84.00
2018-10-09T16:24:57.078Z,68.00
2018-10-09T16:25:57.008Z,64.00
2018-10-09T16:27:49.771Z,52.00
2018-10-09T16:28:49.729Z,52.00
2018-10-09T16:30:42.503Z,40.00
2018-10-09T16:31:42.431Z,36.00
2018-10-09T16:33:35.210Z,28.00
2018-10-09T16:34:35.141Z,28.00
2018-10-09T16:36:27.958Z,20.00
2018-10-09T16:37:27.892Z,16.00
2018-10-09T16:39:20.674Z,12.00
2018-10-09T16:40:20.613Z,12.00
2018-10-09T16:42:13.372Z,8.00
2018-10-09T16:43:13.322Z,8.00
2018-10-09T16:45:06.106Z,4.00
2018-10-09T16:46:06.023Z,4.00
2018-10-09T16:47:58.800Z,0.00
2018-10-09T16:48:58.738Z,0.00
2018-10-09T16:50:51.510Z,0.00
2018-10-09T16:51:51.435Z,0.00
2018-10-09T16:53:44.518Z,0.00
2018-10-09T16:54:44.446Z,0.00
2018-10-09T16:56:37.219Z,0.00
2018-10-09T16:57:37.144Z,0.00
2018-10-09T16:59:29.919Z,0.00
2018-10-09T17:00:29.964Z,0.00
2018-10-09T17:02:22.624Z,0.00
2018-10-09T17:03:22.550Z,0.00
2018-10-09T17:05:15.334Z,0.00
2018-10-09T17:06:15.252Z,0.00
2018-10-09T17:08:08.029Z,0.00
2018-10-09T17:09:07.965Z,0.00
2018-10-09T17:11:00.745Z,0.00
2018-10-09T17:12:00.663Z,0.00
2018-10-09T17:13:53.450Z,0.00
2018-10-09T17:14:53.373Z,0.00
2018-10-09T17:16:46.142Z,0.00
2018-10-09T17:17:46.069Z,0.00
2018-10-09T17:19:38.873Z,0.00
2018-10-09T17:20:38.807Z,0.00
2018-10-09T17:22:31.613Z,0.00
2018-10-09T17:23:31.481Z,0.00
2018-10-09T17:25:24.250Z,0.00
2018-10-09T17:26:24.180Z,0.00
2018-10-09T17:28:17.048Z,0.00
2018-10-09T17:29:16.873Z,0.00
2018-10-09T17:31:09.686Z,0.00
2018-10-09T17:32:09.572Z,0.00
2018-10-09T17:34:02.349Z,0.00
2018-10-09T17:35:02.272Z,0.00
2018-10-09T17:36:55.041Z,0.00
2018-10-09T17:37:54.973Z,0.00
2018-10-09T17:39:47.762Z,0.00
2018-10-09T17:40:47.668Z,0.00
2018-10-09T17:42:40.442Z,0.00
2018-10-09T17:43:40.387Z,0.00
2018-10-09T17:45:33.167Z,0.00
2018-10-09T17:46:33.299Z,0.00
2018-10-09T17:48:25.885Z,0.00
2018-10-09T17:49:25.784Z,0.00
2018-10-09T17:51:18.554Z,0.00
2018-10-09T17:52:18.477Z,0.00
2018-10-09T17:54:11.245Z,0.00
2018-10-09T17:55:11.175Z,0.00
2018-10-09T17:57:03.935Z,0.00
2018-10-09T17:58:03.866Z,0.00
2018-10-09T17:59:56.679Z,0.00
2018-10-09T18:00:56.565Z,0.00
2018-10-09T18:02:49.334Z,0.00
2018-10-09T18:03:49.274Z,0.00